Time;durP1;ratioP1;P1;durP2;ratioP2;P2;SDS_P1;SDS_P2;PMS_P1;PMS_P2;Temp;Humidity;BMP_temperature;BMP_pressure;BME280_temperature;BME280_humidity;BME280_pressure;Samples;Min_cycle;Max_cycle;Signal;HPM_P1;HPM_P2
2022/08/11 00:01:54;;;;;;;6.72;1.58;;;;;;;20.59;100.00;99128.16;5084975;28;20095;-96
2022/08/11 00:04:23;;;;;;;6.55;1.65;;;;;;;20.81;100.00;99117.47;5068402;28;20079;-96
2022/08/11 00:06:52;;;;;;;8.25;1.60;;;;;;;20.68;100.00;99116.31;5047924;28;20037;-96
2022/08/11 00:09:36;;;;;;;6.75;1.83;;;;;;;20.48;100.00;99110.06;5070204;28;20461;-95
2022/08/11 00:12:03;;;;;;;6.47;1.92;;;;;;;20.62;100.00;99114.75;5049453;28;20044;-96
2022/08/11 00:14:30;;;;;;;7.25;1.73;;;;;;;20.78;100.00;99113.19;5055665;28;20108;-95
2022/08/11 00:17:06;;;;;;;7.75;1.73;;;;;;;20.86;100.00;99104.84;5055750;28;20119;-96
2022/08/11 00:19:45;;;;;;;5.63;1.48;;;;;;;20.76;100.00;99109.72;5058092;28;20032;-96
2022/08/11 00:22:18;;;;;;;7.50;2.10;;;;;;;20.69;100.00;99113.59;5053469;28;20033;-96
2022/08/11 00:24:43;;;;;;;;;;;;;;;20.56;100.00;99115.91;5054600;28;20017;-96
2022/08/11 00:27:09;;;;;;;6.07;1.63;;;;;;;20.34;100.00;99113.31;5056520;28;19917;-96
2022/08/11 00:29:35;;;;;;;5.80;1.40;;;;;;;20.34;100.00;99113.31;5042909;28;20029;-96
2022/08/11 00:32:03;;;;;;;6.35;1.60;;;;;;;20.30;100.00;99114.38;5074188;28;20028;-96
2022/08/11 00:34:32;;;;;;;7.72;1.92;;;;;;;20.38;100.00;99111.41;5057032;28;20025;-95
2022/08/11 00:37:05;;;;;;;8.90;2.15;;;;;;;20.10;100.00;99120.53;5055109;28;20036;-95
2022/08/11 00:39:32;;;;;;;;;;;;;;;20.30;100.00;99109.09;5067412;28;20036;-95
2022/08/11 00:42:18;;;;;;;7.57;1.90;;;;;;;20.22;100.00;99108.56;5055276;28;19928;-96
2022/08/11 00:45:08;;;;;;;6.22;1.63;;;;;;;20.33;100.00;99110.75;5050955;28;20094;-96
2022/08/11 00:47:39;;;;;;;8.25;1.80;;;;;;;20.12;100.00;99098.38;5054371;28;20400;-95
2022/08/11 00:50:43;;;;;;;6.93;1.75;;;;;;;20.18;100.00;99110.50;5058579;28;20044;-96
2022/08/11 00:53:36;;;;;;;5.20;1.40;;;;;;;20.20;100.00;99100.69;5043165;28;20059;-95
2022/08/11 00:56:36;;;;;;;5.45;1.48;;;;;;;20.06;100.00;99103.91;5050058;28;20055;-96
2022/08/11 00:59:10;;;;;;;6.15;1.67;;;;;;;20.17;100.00;99099.97;5055599;28;20064;-96
2022/08/11 01:01:35;;;;;;;7.28;1.65;;;;;;;20.02;100.00;99098.81;5061068;28;20127;-96
2022/08/11 01:04:23;;;;;;;5.35;1.45;;;;;;;20.60;100.00;99095.44;5062855;28;20085;-95
2022/08/11 01:07:25;;;;;;;5.95;1.48;;;;;;;20.43;100.00;99096.16;5055388;28;20078;-95
2022/08/11 01:10:28;;;;;;;6.22;1.67;;;;;;;20.57;100.00;99099.06;5055066;28;20025;-96
2022/08/11 01:13:12;;;;;;;5.90;1.63;;;;;;;21.09;100.00;99095.84;5047182;28;20036;-95
2022/08/11 01:15:44;;;;;;;7.47;1.40;;;;;;;20.23;100.00;99107.63;5070734;28;20037;-95
2022/08/11 01:18:31;;;;;;;5.10;1.70;;;;;;;20.40;100.00;99102.47;5051782;28;20058;-94
2022/08/11 01:21:24;;;;;;;6.32;1.60;;;;;;;20.61;100.00;99095.34;5055442;28;20035;-96
2022/08/11 01:24:18;;;;;;;7.88;1.40;;;;;;;20.25;100.00;99092.53;5069837;28;20047;-95
2022/08/11 01:26:59;;;;;;;;;;;;;;;19.98;100.00;99090.13;5053035;28;20033;-96
2022/08/11 01:29:58;;;;;;;6.60;1.40;;;;;;;19.77;100.00;99098.00;5053510;28;19912;-96
2022/08/11 01:32:36;;;;;;;5.93;1.65;;;;;;;19.74;100.00;99092.00;5055527;28;20124;-94
2022/08/11 01:35:17;;;;;;;7.95;1.42;;;;;;;19.79;100.00;99087.38;5057241;28;20165;-96
2022/08/11 01:37:58;;;;;;;5.03;1.60;;;;;;;19.79;100.00;99087.38;5053040;28;20032;-96
2022/08/11 01:40:23;;;;;;;5.50;1.60;;;;;;;19.47;100.00;99092.22;5070088;28;20028;-96
2022/08/11 01:46:21;;;;;;;5.70;1.77;;;;;;;19.77;100.00;99081.28;5066903;28;20047;-96
2022/08/11 01:49:16;;;;;;;6.60;1.60;;;;;;;19.80;100.00;99088.28;5049468;28;20048;-94
2022/08/11 01:52:18;;;;;;;9.77;2.00;;;;;;;20.23;100.00;99084.66;5053479;28;20040;-94
2022/08/11 01:55:26;;;;;;;7.10;2.00;;;;;;;20.13;100.00;99100.06;5051009;28;20068;-96
2022/08/11 01:58:22;;;;;;;6.50;1.80;;;;;;;20.53;100.00;99097.50;5049301;28;20042;-96
2022/08/11 02:01:23;;;;;;;6.85;1.60;;;;;;;20.36;100.00;99090.28;5051047;28;20067;-95
2022/08/11 02:03:57;;;;;;;5.65;1.67;;;;;;;20.72;100.00;99080.78;5068665;28;20051;-94
2022/08/11 02:06:53;;;;;;;7.55;1.60;;;;;;;20.98;100.00;99082.25;5067870;28;20029;-95
2022/08/11 02:09:43;;;;;;;5.63;1.45;;;;;;;20.69;100.00;99083.56;5054273;28;20028;-94
2022/08/11 02:12:19;;;;;;;6.20;1.40;;;;;;;20.68;100.00;99082.72;5052711;28;20473;-94
2022/08/11 02:15:06;;;;;;;6.57;1.60;;;;;;;20.23;100.00;99081.16;5052179;28;20160;-94
2022/08/11 02:17:50;;;;;;;5.28;1.50;;;;;;;20.31;100.00;99092.28;5047939;28;20032;-95
2022/08/11 02:26:22;;;;;;;7.72;1.80;;;;;;;20.25;100.00;99081.94;5069178;28;20545;-93
2022/08/11 02:29:14;;;;;;;7.57;1.58;;;;;;;20.68;100.00;99082.72;5071383;28;20117;-96
2022/08/11 02:35:03;;;;;;;6.03;1.35;;;;;;;21.17;100.00;99078.72;5055566;28;20472;-95
2022/08/11 02:37:39;;;;;;;7.03;1.60;;;;;;;21.23;100.00;99076.63;5050719;28;20029;-93
2022/08/11 02:40:19;;;;;;;7.28;1.80;;;;;;;21.22;100.00;99072.25;5048321;28;20492;-96
2022/08/11 02:42:45;;;;;;;13.68;2.08;;;;;;;21.21;100.00;99075.84;5050115;28;20116;-94
2022/08/11 02:45:47;;;;;;;8.45;1.80;;;;;;;21.17;100.00;99070.75;5052153;28;20112;-95
2022/08/11 02:51:39;;;;;;;7.88;1.45;;;;;;;20.96;100.00;99066.41;5067051;28;20043;-95
2022/08/11 02:54:20;;;;;;;4.93;1.60;;;;;;;21.33;100.00;99061.13;5045189;28;20033;-94
2022/08/11 02:56:58;;;;;;;6.22;1.55;;;;;;;21.02;100.00;99072.34;5053487;28;20104;-95
2022/08/11 03:02:30;;;;;;;7.53;1.63;;;;;;;21.01;100.00;99075.94;5063930;28;20091;-95
2022/08/11 03:05:19;;;;;;;;;;;;;;;21.04;100.00;99068.69;5069053;28;20033;-95
2022/08/11 03:08:11;;;;;;;4.90;1.55;;;;;;;20.83;100.00;99070.53;5071240;28;19959;-94
2022/08/11 03:17:02;;;;;;;5.72;1.65;;;;;;;20.19;100.00;99072.47;5061654;28;20050;-94
2022/08/11 03:19:58;;;;;;;6.72;1.63;;;;;;;20.13;100.00;99073.59;5053841;28;20036;-95
2022/08/11 03:22:29;;;;;;;5.97;1.70;;;;;;;20.07;100.00;99073.88;5065214;28;20063;-95
2022/08/11 03:25:05;;;;;;;6.43;1.65;;;;;;;20.27;100.00;99078.28;5060685;28;20028;-95
2022/08/11 03:27:36;;;;;;;7.82;1.63;;;;;;;20.28;100.00;99074.72;5038332;28;20093;-95
2022/08/11 03:30:05;;;;;;;4.78;1.40;;;;;;;20.23;100.00;99078.50;5070196;28;20067;-95
2022/08/11 03:34:00;;;;;;;6.63;1.58;;;;;;;19.82;100.00;99073.19;5052681;28;20033;-96
2022/08/11 03:35:36;;;;;;;7.25;1.65;;;;;;;19.88;100.00;99079.09;5062859;28;20075;-95
2022/08/11 03:38:10;;;;;;;7.93;1.85;;;;;;;19.83;100.00;99075.75;5049959;28;20035;-95
2022/08/11 03:43:54;;;;;;;7.05;1.58;;;;;;;19.91;100.00;99084.25;5066397;28;20075;-96
2022/08/11 03:46:49;;;;;;;7.03;1.70;;;;;;;19.65;100.00;99072.06;5067590;28;20021;-94
2022/08/11 03:49:29;;;;;;;4.93;1.33;;;;;;;20.02;100.00;99075.00;5070875;28;20503;-95
2022/08/11 03:52:39;;;;;;;6.05;1.70;;;;;;;19.93;100.00;99068.28;5072479;28;20039;-94
2022/08/11 03:55:11;;;;;;;10.90;2.10;;;;;;;19.68;100.00;99071.97;5057645;28;20048;-94
2022/08/11 03:58:04;;;;;;;5.70;1.60;;;;;;;19.73;100.00;99075.25;5055004;28;20040;-95
2022/08/11 04:00:48;;;;;;;;;;;;;;;19.72;100.00;99070.03;5051940;28;20093;-95
2022/08/11 04:03:35;;;;;;;7.10;1.80;;;;;;;19.78;100.00;99065.34;5055174;28;19916;-96
2022/08/11 04:06:33;;;;;;;7.90;1.92;;;;;;;19.58;100.00;99058.25;5065190;28;20112;-96
2022/08/11 04:09:17;;;;;;;6.03;1.75;;;;;;;19.92;100.00;99064.78;5050403;28;20059;-96
2022/08/11 04:12:00;;;;;;;6.50;1.73;;;;;;;19.60;100.00;99055.53;5066297;28;20028;-96
2022/08/11 04:18:07;;;;;;;9.00;1.90;;;;;;;19.57;100.00;99058.31;5064724;28;20070;-96
2022/08/11 04:20:33;;;;;;;6.90;2.17;;;;;;;18.97;100.00;99061.56;5054143;28;20609;-95
2022/08/11 04:23:21;;;;;;;8.48;1.85;;;;;;;19.18;100.00;99061.63;5056599;28;20044;-95
2022/08/11 04:26:21;;;;;;;7.03;2.00;;;;;;;19.30;100.00;99070.84;5045441;28;20032;-96
2022/08/11 04:29:21;;;;;;;11.35;1.90;;;;;;;19.27;100.00;99063.91;5050927;28;20067;-95
2022/08/11 04:31:46;;;;;;;6.22;2.05;;;;;;;19.91;100.00;99062.22;5051384;28;20039;-94
2022/08/11 04:34:31;;;;;;;7.03;1.90;;;;;;;20.02;100.00;99067.91;5050902;28;20024;-95
2022/08/11 04:37:35;;;;;;;6.85;1.90;;;;;;;20.31;100.00;99064.94;5068248;28;20564;-95
2022/08/11 04:40:04;;;;;;;6.75;1.63;;;;;;;19.83;100.00;99064.31;5053662;28;20033;-95
2022/08/11 04:46:17;;;;;;;5.80;1.65;;;;;;;19.40;100.00;99067.78;5073014;28;20056;-94
2022/08/11 05:01:39;;;;;;;6.50;1.80;;;;;;;19.05;100.00;99064.78;5070054;28;20059;-96
2022/08/11 05:07:17;;;;;;;7.70;2.00;;;;;;;19.19;100.00;99064.22;5065600;28;20040;-95
2022/08/11 05:09:51;;;;;;;6.20;1.90;;;;;;;19.21;100.00;99066.81;5053539;28;20052;-96
2022/08/11 05:12:41;;;;;;;7.65;2.15;;;;;;;18.91;100.00;99062.66;5047236;28;20158;-94
2022/08/11 05:35:45;;;;;;;6.22;1.90;;;;;;;19.58;100.00;99082.06;5070752;28;20063;-95
2022/08/11 05:57:56;;;;;;;7.38;2.10;;;;;;;19.74;100.00;99084.06;5072579;28;20031;-96
2022/08/11 06:00:23;;;;;;;8.27;2.05;;;;;;;19.70;100.00;99075.38;5052296;28;20032;-95
2022/08/11 06:03:02;;;;;;;6.47;1.90;;;;;;;19.53;100.00;99081.38;5044314;28;20033;-96
2022/08/11 06:05:34;;;;;;;7.22;1.90;;;;;;;19.56;100.00;99083.03;5056796;28;20496;-96
2022/08/11 06:08:01;;;;;;;7.80;1.90;;;;;;;19.68;100.00;99090.47;5056238;28;20039;-96
2022/08/11 06:10:40;;;;;;;6.78;2.08;;;;;;;20.07;100.00;99084.47;5057967;28;20016;-96
2022/08/11 06:13:07;;;;;;;5.85;2.05;;;;;;;20.17;100.00;99076.13;5041858;28;20025;-96
2022/08/11 06:15:43;;;;;;;7.30;2.10;;;;;;;19.91;100.00;99078.94;5054435;28;20400;-96
2022/08/11 06:18:11;;;;;;;5.82;1.75;;;;;;;20.07;100.00;99083.59;5043625;28;20024;-95
2022/08/11 06:20:54;;;;;;;8.45;1.90;;;;;;;20.08;100.00;99077.38;5041251;28;20086;-96
2022/08/11 06:23:22;;;;;;;6.45;1.95;;;;;;;20.03;100.00;99087.31;5056292;28;20036;-96
2022/08/11 06:25:57;;;;;;;8.00;1.80;;;;;;;20.27;100.00;99086.25;5048041;28;20036;-96
2022/08/11 06:28:36;;;;;;;6.35;1.88;;;;;;;20.48;100.00;99077.44;5056137;28;20020;-96
2022/08/11 06:31:13;;;;;;;6.55;1.83;;;;;;;20.13;100.00;99086.84;5063615;28;20042;-95
2022/08/11 06:34:07;;;;;;;10.07;2.00;;;;;;;20.10;100.00;99086.13;5054511;28;20020;-96
2022/08/11 06:36:53;;;;;;;6.30;1.88;;;;;;;20.28;100.00;99087.97;5066023;28;20098;-96
2022/08/11 06:39:48;;;;;;;6.80;2.08;;;;;;;20.63;100.00;99087.34;5044589;28;20041;-96
2022/08/11 06:42:26;;;;;;;10.65;2.00;;;;;;;20.67;100.00;99083.63;4962568;28;20050;-96
2022/08/11 06:45:24;;;;;;;8.02;2.30;;;;;;;21.13;100.00;99081.50;4974361;28;20140;-96
2022/08/11 06:47:51;;;;;;;7.07;1.88;;;;;;;21.14;100.00;99077.94;4900723;29;20032;-94
2022/08/11 06:53:11;;;;;;;7.35;1.92;;;;;;;20.90;100.00;99090.53;4921522;29;20038;-96
2022/08/11 07:01:56;;;;;;;6.25;1.70;;;;;;;21.57;100.00;99080.34;4916175;29;20071;-96
2022/08/11 07:04:46;;;;;;;7.32;1.83;;;;;;;21.90;100.00;99087.56;4901761;29;20043;-96
2022/08/11 07:16:27;;;;;;;6.35;1.77;;;;;;;21.83;100.00;99084.34;4902341;29;20044;-96
2022/08/11 07:30:41;;;;;;;6.78;2.08;;;;;;;21.74;100.00;99092.78;4992991;28;20053;-95
2022/08/11 07:33:09;;;;;;;7.05;2.10;;;;;;;21.55;100.00;99081.34;4977451;28;20030;-96
2022/08/11 07:35:50;;;;;;;9.88;2.25;;;;;;;22.81;100.00;99087.31;4979695;28;20557;-96
2022/08/11 07:38:42;;;;;;;9.65;2.55;;;;;;;22.75;100.00;99085.84;4989374;28;20089;-95
2022/08/11 07:41:15;;;;;;;6.80;1.85;;;;;;;22.45;100.00;99078.56;5027162;28;20044;-95
2022/08/11 07:43:47;;;;;;;7.40;2.10;;;;;;;23.67;100.00;99081.66;5051735;28;20036;-96
2022/08/11 07:54:32;;;;;;;7.03;2.05;;;;;;;22.74;100.00;99084.13;5061050;28;20063;-95
2022/08/11 08:19:31;;;;;;;8.93;2.13;;;;;;;24.27;100.00;99078.16;5069243;28;20067;-95
2022/08/11 08:21:57;;;;;;;6.97;2.25;;;;;;;24.53;100.00;99081.88;5048228;28;20033;-93
2022/08/11 08:24:24;;;;;;;8.25;1.90;;;;;;;24.56;100.00;99080.00;5064799;28;20430;-93
2022/08/11 08:26:59;;;;;;;8.20;2.25;;;;;;;24.88;100.00;99075.34;5050397;28;20501;-96
2022/08/11 08:32:20;;;;;;;5.70;1.70;;;;;;;24.44;100.00;99084.25;5073586;28;20091;-96
2022/08/11 08:34:51;;;;;;;6.72;2.00;;;;;;;24.34;100.00;99081.31;5056433;28;20051;-94
2022/08/11 08:37:23;;;;;;;7.03;1.70;;;;;;;24.46;100.00;99088.56;5054577;28;20035;-94
2022/08/11 08:39:49;;;;;;;8.05;1.80;;;;;;;24.69;100.00;99086.31;5067823;28;20029;-93
2022/08/11 08:42:30;;;;;;;8.20;1.70;;;;;;;24.66;100.00;99075.84;5066035;28;20066;-93
2022/08/11 08:45:02;;;;;;;8.38;2.05;;;;;;;24.49;100.00;99087.50;5067487;28;20024;-93
2022/08/11 08:47:30;;;;;;;9.85;1.90;;;;;;;24.96;100.00;99083.72;5065429;28;20060;-94
2022/08/11 08:50:05;;;;;;;7.20;1.83;;;;;;;24.71;100.00;99084.41;5070020;28;20492;-93
2022/08/11 08:52:39;;;;;;;7.10;2.00;;;;;;;25.25;100.00;99077.47;5045489;28;20123;-94
2022/08/11 08:55:06;;;;;;;8.77;2.17;;;;;;;25.69;100.00;99074.59;5050652;28;20057;-94
2022/08/11 08:57:35;;;;;;;6.22;2.10;;;;;;;25.11;100.00;99087.25;5051685;28;20036;-94
2022/08/11 09:00:02;;;;;;;6.43;1.90;;;;;;;25.78;100.00;99078.47;5048280;28;20052;-96
2022/08/11 09:02:29;;;;;;;6.93;2.22;;;;;;;25.72;100.00;99079.75;5054500;28;20036;-94
2022/08/11 09:04:55;;;;;;;7.75;1.90;;;;;;;26.08;100.00;99082.72;5052031;28;20020;-95
2022/08/11 09:07:25;;;;;;;8.50;1.60;;;;;;;25.97;100.00;99082.56;5049707;28;20119;-95
2022/08/11 09:09:55;;;;;;;7.88;2.00;;;;;;;25.97;100.00;99082.56;5062699;28;20032;-93
2022/08/11 09:12:26;;;;;;;6.28;1.85;;;;;;;25.93;100.00;99083.72;5053639;28;20116;-95
2022/08/11 09:15:06;;;;;;;7.45;1.75;;;;;;;25.99;100.00;99078.00;5047833;28;20028;-94
2022/08/11 09:17:38;;;;;;;9.27;1.92;;;;;;;26.21;100.00;99072.91;5049585;28;20048;-96
2022/08/11 09:20:10;;;;;;;8.23;1.60;;;;;;;26.37;100.00;99078.06;5069376;28;20060;-94
2022/08/11 09:28:20;;;;;;;6.35;1.55;;;;;;;26.38;99.70;99076.25;5068815;28;20109;-93
2022/08/11 09:30:53;;;;;;;6.80;1.88;;;;;;;26.89;95.00;99078.91;5044266;28;20043;-95
2022/08/11 09:33:21;;;;;;;7.57;1.70;;;;;;;26.66;98.74;99076.97;5050328;28;20043;-95
2022/08/11 09:35:49;;;;;;;5.57;1.50;;;;;;;26.31;91.81;99073.13;5047095;28;20028;-94
2022/08/11 09:41:09;;;;;;;6.10;1.60;;;;;;;26.81;92.79;99073.25;5072091;28;20461;-95
2022/08/11 09:46:28;;;;;;;8.65;1.80;;;;;;;26.96;93.92;99075.78;5065487;28;20098;-95
2022/08/11 09:49:00;;;;;;;5.43;1.60;;;;;;;26.92;89.48;99075.16;5046031;28;20043;-94
2022/08/11 09:51:30;;;;;;;8.15;1.73;;;;;;;26.60;90.88;99074.72;5047359;28;20059;-95
2022/08/11 09:53:58;;;;;;;7.30;1.67;;;;;;;26.44;89.28;99062.44;5052179;28;20106;-92
2022/08/11 09:59:20;;;;;;;8.45;2.05;;;;;;;27.21;92.75;99059.66;5066863;28;20038;-94
2022/08/11 10:01:49;;;;;;;5.65;1.73;;;;;;;26.67;87.36;99062.66;5048811;28;20032;-96
2022/08/11 10:04:21;;;;;;;9.15;1.90;;;;;;;26.76;94.03;99066.50;5041566;28;20048;-92
2022/08/11 10:07:01;;;;;;;7.20;1.67;;;;;;;27.88;89.08;99062.81;5042073;28;20083;-96
2022/08/11 10:09:35;;;;;;;7.43;2.05;;;;;;;28.16;87.91;99060.72;5060417;28;20044;-93
2022/08/11 10:12:04;;;;;;;10.75;1.70;;;;;;;27.40;87.68;99063.69;5057448;28;20029;-94
2022/08/11 10:17:19;;;;;;;7.15;1.98;;;;;;;27.47;82.21;99056.91;5066809;28;20145;-94
2022/08/11 10:19:47;;;;;;;9.35;2.00;;;;;;;27.97;85.59;99062.09;5070410;28;20426;-95
2022/08/11 10:27:57;;;;;;;8.98;2.15;;;;;;;31.80;54.35;99067.78;5062177;28;20593;-94
2022/08/11 10:36:17;;;;;;;7.38;2.10;;;;;;;30.97;62.61;99056.41;5066750;28;20031;-93
2022/08/11 10:38:51;;;;;;;7.63;2.15;;;;;;;30.22;60.95;99051.22;5045619;28;20086;-96
2022/08/11 10:44:04;;;;;;;7.55;2.40;;;;;;;29.82;56.10;99046.50;5065364;28;20339;-95
2022/08/11 10:49:40;;;;;;;6.85;2.25;;;;;;;30.61;69.85;99046.06;5065653;28;20043;-94
2022/08/11 11:00:23;;;;;;;10.13;2.17;;;;;;;31.38;62.03;99043.72;5062769;28;20546;-93
2022/08/11 11:02:51;;;;;;;6.75;2.10;;;;;;;30.80;56.32;99044.41;5046819;28;20085;-95
2022/08/11 11:05:45;;;;;;;6.60;2.20;;;;;;;31.09;57.31;99038.28;5046900;28;20036;-95
2022/08/11 11:11:08;;;;;;;9.23;2.40;;;;;;;30.53;58.42;99029.72;5059900;28;20169;-96
2022/08/11 11:19:10;;;;;;;8.88;2.60;;;;;;;30.70;55.47;99035.47;5058600;28;20064;-95
2022/08/11 11:21:37;;;;;;;8.40;2.67;;;;;;;30.76;55.74;99032.22;5066602;28;20029;-94
2022/08/11 11:24:22;;;;;;;7.43;2.20;;;;;;;30.89;55.48;99034.69;5063142;28;20055;-95
2022/08/11 11:27:05;;;;;;;7.20;2.30;;;;;;;30.74;49.88;99036.91;5065405;28;20050;-92
2022/08/11 11:30:02;;;;;;;8.00;2.60;;;;;;;31.06;53.95;99031.34;5037811;28;20485;-94
2022/08/11 11:32:33;;;;;;;8.00;2.30;;;;;;;30.48;47.80;99031.97;5044502;28;20027;-94
2022/08/11 11:35:54;;;;;;;7.13;1.90;;;;;;;30.62;54.03;99020.84;5072054;28;20380;-95
2022/08/11 11:38:23;;;;;;;6.18;1.90;;;;;;;29.96;52.30;99026.53;4996109;28;20028;-94
2022/08/11 11:41:23;;;;;;;8.75;2.17;;;;;;;30.84;53.56;99026.16;5061226;28;20089;-94
2022/08/11 11:43:41;;;;;;;6.72;2.30;;;;;;;31.29;42.99;99031.97;5056161;28;20463;-94
2022/08/11 11:46:10;;;;;;;12.80;2.47;;;;;;;30.75;51.62;99027.84;5045223;28;20712;-94
2022/08/11 11:48:36;;;;;;;6.43;2.10;;;;;;;30.77;44.96;99039.31;5061381;28;20032;-94
2022/08/11 11:51:03;;;;;;;7.28;2.03;;;;;;;30.44;43.31;99035.94;5051983;28;20029;-94
2022/08/11 11:53:28;;;;;;;7.45;2.10;;;;;;;30.33;49.28;99030.56;5044030;28;20094;-94
2022/08/11 11:56:02;;;;;;;8.10;2.40;;;;;;;30.77;45.56;99029.41;5061002;28;20036;-96
2022/08/11 12:01:15;;;;;;;7.40;2.10;;;;;;;31.05;45.71;99024.28;5063314;28;20035;-95
2022/08/11 12:03:48;;;;;;;7.88;2.42;;;;;;;30.75;46.02;99027.84;5048756;28;20064;-95
2022/08/11 12:06:15;;;;;;;8.27;2.28;;;;;;;30.95;45.20;99017.97;5064697;28;20036;-94
2022/08/11 12:08:41;;;;;;;8.07;2.03;;;;;;;31.32;40.26;99028.97;5065990;28;20085;-93
2022/08/11 12:13:57;;;;;;;8.20;2.33;;;;;;;30.66;40.73;99021.41;5069483;28;20109;-95
2022/08/11 12:16:26;;;;;;;7.15;1.85;;;;;;;30.56;41.67;99015.97;5051365;28;20028;-95
2022/08/11 12:18:58;;;;;;;6.30;1.95;;;;;;;30.53;41.41;99013.56;5047583;28;20202;-93
2022/08/11 12:21:25;;;;;;;6.97;2.00;;;;;;;31.09;43.74;99008.66;5063084;28;20024;-95
2022/08/11 12:29:18;;;;;;;7.32;2.10;;;;;;;31.07;39.23;99005.28;5071727;28;20127;-94
2022/08/11 12:31:44;;;;;;;7.63;2.42;;;;;;;31.30;40.26;99009.41;5052003;28;20578;-95
2022/08/11 12:34:13;;;;;;;7.03;2.03;;;;;;;31.21;45.08;98996.78;5068936;28;20575;-95
2022/08/11 12:36:41;;;;;;;9.23;2.40;;;;;;;30.80;46.11;98995.94;5054836;28;20047;-95
2022/08/11 12:39:12;;;;;;;8.98;2.05;;;;;;;31.49;42.68;99010.41;5059112;28;20100;-94
2022/08/11 12:47:15;;;;;;;9.02;2.50;;;;;;;30.87;39.56;98996.25;5057807;28;20036;-94
2022/08/11 12:52:33;;;;;;;8.30;2.72;;;;;;;31.28;42.42;98997.06;5065230;28;20093;-95
2022/08/11 12:58:17;;;;;;;7.53;2.58;;;;;;;31.80;46.07;98986.88;5064811;28;20094;-93
2022/08/11 13:06:17;;;;;;;6.30;2.10;;;;;;;31.41;38.39;98992.22;5071563;28;20035;-95
2022/08/11 13:08:45;;;;;;;6.28;2.00;;;;;;;31.54;39.43;98986.59;5050709;28;20028;-95
2022/08/11 13:14:07;;;;;;;8.65;2.35;;;;;;;31.52;38.51;98977.78;5072970;28;20427;-96
2022/08/11 13:19:24;;;;;;;8.20;2.25;;;;;;;31.63;41.94;98966.88;5059892;28;20136;-93
2022/08/11 13:22:05;;;;;;;;;;;;;;;;;;;;;
2022/08/11 13:24:33;;;;;;;7.23;2.43;;;;;;;31.75;43.31;98956.78;5066876;28;20040;-94
2022/08/11 13:27:02;;;;;;;6.88;2.42;;;;;;;32.34;43.79;98960.16;5055447;28;20026;-96
2022/08/11 13:29:51;;;;;;;8.13;2.40;;;;;;;32.33;39.47;98955.78;5067562;28;20036;-95
2022/08/11 13:32:25;;;;;;;8.18;2.20;;;;;;;31.65;40.10;98951.41;5050275;28;20044;-96
2022/08/11 13:34:54;;;;;;;8.80;2.30;;;;;;;32.14;39.58;98945.91;5051708;28;20060;-96
2022/08/11 13:37:21;;;;;;;7.00;2.13;;;;;;;32.43;38.81;98949.47;5052519;28;20028;-95
2022/08/11 13:39:53;;;;;;;8.70;2.30;;;;;;;32.17;37.47;98952.88;5069029;28;20546;-95
2022/08/11 13:42:19;;;;;;;6.30;2.17;;;;;;;32.15;36.08;98946.75;5053782;28;20059;-96
2022/08/11 13:44:46;;;;;;;7.80;2.08;;;;;;;32.58;35.05;98947.16;5059694;28;20025;-95
2022/08/11 13:47:25;;;;;;;9.88;2.38;;;;;;;32.17;36.83;98950.19;5051835;28;20024;-96
2022/08/11 13:49:51;;;;;;;12.23;2.70;;;;;;;33.53;38.55;98947.66;5054109;28;20430;-95
2022/08/11 13:52:18;;;;;;;10.52;2.40;;;;;;;31.78;38.05;98951.09;5072813;28;20088;-94
2022/08/11 13:54:46;;;;;;;7.75;2.25;;;;;;;31.73;40.25;98947.13;5049595;28;20043;-96
2022/08/11 13:57:14;;;;;;;14.38;2.35;;;;;;;31.95;39.56;98944.09;5050129;28;20020;-95
2022/08/11 13:59:41;;;;;;;7.35;2.35;;;;;;;32.59;39.69;98947.00;5065460;28;20032;-94
2022/08/11 14:02:13;;;;;;;8.00;1.90;;;;;;;32.74;35.98;98958.16;5067694;28;20059;-94
2022/08/11 14:04:40;;;;;;;;;;;;;;;32.98;36.96;98948.63;5052526;28;20097;-96
2022/08/11 14:07:08;;;;;;;7.82;2.33;;;;;;;31.87;35.49;98946.66;5048262;28;19915;-95
2022/08/11 14:09:40;;;;;;;7.03;2.00;;;;;;;31.99;37.05;98948.19;5051656;28;20155;-94
2022/08/11 14:15:06;;;;;;;7.28;2.15;;;;;;;32.92;36.80;98938.44;5061353;28;20071;-92
2022/08/11 14:17:34;;;;;;;10.02;2.65;;;;;;;32.87;38.30;98936.19;5050199;28;20032;-95
2022/08/11 14:20:05;;;;;;;11.00;2.10;;;;;;;31.93;35.55;98937.13;5065520;28;20119;-94
2022/08/11 14:22:32;;;;;;;8.57;2.22;;;;;;;32.56;36.91;98936.50;5067684;28;20036;-93
2022/08/11 14:24:58;;;;;;;6.85;2.22;;;;;;;33.11;34.87;98926.63;5064053;28;20033;-94
2022/08/11 14:27:29;;;;;;;6.85;2.17;;;;;;;33.58;36.47;98923.69;5060472;28;20098;-95
2022/08/11 14:29:55;;;;;;;8.00;2.50;;;;;;;33.01;33.41;98924.88;5052764;28;20029;-95
2022/08/11 14:32:21;;;;;;;8.30;2.35;;;;;;;33.08;31.89;98926.94;5050057;28;20499;-96
2022/08/11 14:34:49;;;;;;;7.80;2.47;;;;;;;33.27;32.03;98926.81;5067792;28;20054;-95
2022/08/11 14:37:24;;;;;;;8.90;2.58;;;;;;;33.60;34.35;98918.09;5048241;28;20494;-94
2022/08/11 14:39:56;;;;;;;7.55;2.40;;;;;;;33.22;33.63;98923.69;5050055;28;20751;-92
2022/08/11 14:48:03;;;;;;;11.73;3.13;;;;;;;33.70;33.67;98913.47;5062602;28;20842;-91
2022/08/11 14:50:31;;;;;;;8.07;3.35;;;;;;;33.24;35.43;98904.63;5069981;28;20020;-90
2022/08/11 14:53:03;;;;;;;9.10;3.25;;;;;;;33.28;33.23;98917.72;5039011;28;20040;-90
2022/08/11 14:58:24;;;;;;;8.50;3.13;;;;;;;33.11;34.98;98905.00;5058396;28;19923;-90
2022/08/11 15:00:56;;;;;;;10.43;3.15;;;;;;;33.94;32.79;98915.50;5062336;28;20032;-90
2022/08/11 15:03:23;;;;;;;;;;;;;;;33.10;32.61;98914.97;5062292;28;20155;-91
2022/08/11 15:05:54;;;;;;;7.88;2.88;;;;;;;33.17;31.78;98913.34;5041457;28;19921;-92
2022/08/11 15:08:53;;;;;;;14.50;3.00;;;;;;;32.11;34.15;98902.16;5062563;28;20025;-91
2022/08/11 15:13:58;;;;;;;8.05;3.00;;;;;;;32.76;33.03;98907.53;5064333;28;20047;-92
2022/08/11 15:19:11;;;;;;;10.30;2.88;;;;;;;33.79;30.94;98909.81;5063886;28;20082;-91
2022/08/11 15:24:22;;;;;;;7.05;2.70;;;;;;;33.48;29.85;98906.72;5060640;28;21105;-89
2022/08/11 15:37:51;;;;;;;7.80;2.22;;;;;;;34.16;30.50;98894.31;5068622;28;20031;-91
2022/08/11 15:46:32;;;;;;;6.90;2.33;;;;;;;34.15;29.48;98887.19;5064035;28;20630;-90
2022/08/11 15:49:28;;;;;;;11.23;2.35;;;;;;;32.71;29.13;98887.41;5055039;28;20037;-89
2022/08/11 15:52:17;;;;;;;7.35;2.35;;;;;;;33.14;29.85;98880.38;5063792;28;20047;-91
2022/08/11 15:54:45;;;;;;;6.10;2.03;;;;;;;33.82;27.89;98889.72;5067637;28;20087;-91
2022/08/11 16:05:23;;;;;;;7.20;2.42;;;;;;;35.60;26.93;98884.28;5064065;28;20051;-90
2022/08/11 16:07:52;;;;;;;8.63;2.35;;;;;;;34.72;24.39;98888.44;5063854;28;20028;-91
2022/08/11 16:10:22;;;;;;;7.25;2.17;;;;;;;34.97;26.08;98878.50;5054748;28;20024;-90
2022/08/11 16:18:39;;;;;;;6.93;2.20;;;;;;;35.44;26.33;98882.44;5059101;28;20038;-91
2022/08/11 16:21:09;;;;;;;7.13;2.08;;;;;;;33.76;25.51;98874.09;5064676;28;20025;-91
2022/08/11 16:23:37;;;;;;;6.60;2.10;;;;;;;34.29;25.83;98867.66;5045703;28;20070;-91
2022/08/11 16:26:05;;;;;;;7.95;2.10;;;;;;;33.57;25.63;98869.75;5067849;28;20036;-89
2022/08/11 16:28:54;;;;;;;8.05;2.33;;;;;;;35.01;25.70;98872.56;5047007;28;20131;-94
2022/08/11 16:31:32;;;;;;;9.85;2.38;;;;;;;34.46;23.80;98873.97;5050724;28;20032;-90
2022/08/11 16:34:00;;;;;;;6.32;2.00;;;;;;;34.98;24.84;98869.38;5049937;28;21473;-90
2022/08/11 16:39:17;;;;;;;7.30;2.22;;;;;;;33.84;25.05;98869.63;5062073;28;20038;-90
2022/08/11 16:47:17;;;;;;;6.05;2.05;;;;;;;33.41;24.82;98859.69;5066003;28;20032;-94
2022/08/11 16:49:46;;;;;;;5.60;1.58;;;;;;;33.98;24.86;98861.91;5052242;28;20059;-92
2022/08/11 16:52:13;;;;;;;6.10;2.00;;;;;;;32.80;26.12;98854.91;5043079;28;20106;-96
2022/08/11 16:54:40;;;;;;;6.20;2.00;;;;;;;34.30;23.84;98857.69;5069928;28;20075;-93
2022/08/11 17:00:33;;;;;;;9.75;2.00;;;;;;;33.49;24.25;98863.28;5066571;28;20035;-93
2022/08/11 17:14:48;;;;;;;6.03;1.90;;;;;;;32.58;26.26;98841.84;5067393;28;20119;-93
2022/08/11 17:17:17;;;;;;;5.95;1.67;;;;;;;32.42;26.00;98845.22;5049710;28;20040;-93
2022/08/11 17:19:55;;;;;;;4.97;1.60;;;;;;;31.39;26.68;98829.00;5046339;28;20033;-94
2022/08/11 17:25:08;;;;;;;7.38;2.00;;;;;;;31.52;27.32;98829.50;5063023;28;20118;-93
2022/08/11 17:27:36;;;;;;;6.22;1.83;;;;;;;31.63;27.94;98820.44;5047601;28;20580;-92